Aviation Digital Data Service (ADDS)

Output produced by METARs form (1242 UTC 20 September 2017)
found at http://aviationweather.gov/adds/metars/
 
KPNE 201138Z 2012/2112 34012KT P6SM SCT080 
     FM201400 35012G20KT P6SM SCT035 
     FM201900 35010G18KT P6SM BKN045 
     FM210100 34006KT P6SM SCT080